Time;durP1;ratioP1;P1;durP2;ratioP2;P2;SDS_P1;SDS_P2;PMS_P1;PMS_P2;Temp;Humidity;BMP_temperature;BMP_pressure;BME280_temperature;BME280_humidity;BME280_pressure;Samples;Min_cycle;Max_cycle;Signal;HPM_P1;HPM_P2
2021/05/22 00:00:53;;;;;;;1.77;0.80;;;;;;;7.96;87.03;95718.59;5061480;28;20059;-66
2021/05/22 00:03:20;;;;;;;1.90;0.70;;;;;;;7.86;86.93;95718.88;5061419;28;20536;-66
2021/05/22 00:05:47;;;;;;;1.65;0.77;;;;;;;7.82;87.52;95699.75;5060862;28;20041;-67
2021/05/22 00:08:13;;;;;;;2.47;0.77;;;;;;;7.80;87.30;95693.06;5061140;28;20041;-66
2021/05/22 00:10:39;;;;;;;2.53;1.00;;;;;;;7.76;87.87;95684.75;5060072;28;20705;-66
2021/05/22 00:13:05;;;;;;;1.38;0.80;;;;;;;7.80;87.92;95690.34;5061099;28;20052;-66
2021/05/22 00:15:31;;;;;;;4.13;1.10;;;;;;;7.81;88.00;95702.78;5060620;28;20677;-66
2021/05/22 00:17:57;;;;;;;2.47;0.70;;;;;;;7.75;87.47;95701.34;5061140;28;20049;-66
2021/05/22 00:20:24;;;;;;;2.95;0.98;;;;;;;7.74;87.82;95703.25;5061187;28;20098;-66
2021/05/22 00:22:50;;;;;;;1.75;0.93;;;;;;;7.79;88.10;95688.75;5060687;28;20047;-66
2021/05/22 00:25:16;;;;;;;1.50;0.90;;;;;;;7.78;88.07;95703.41;5060353;28;20044;-66
2021/05/22 00:27:42;;;;;;;1.48;0.82;;;;;;;7.70;87.99;95704.19;5060522;28;20114;-67
2021/05/22 00:30:10;;;;;;;1.10;0.70;;;;;;;7.70;88.43;95717.72;5060740;28;20064;-67
2021/05/22 00:32:37;;;;;;;2.47;1.00;;;;;;;7.68;88.28;95711.84;5060630;28;20047;-66
2021/05/22 00:35:04;;;;;;;5.70;1.08;;;;;;;7.73;88.74;95714.41;5060260;28;20049;-66
2021/05/22 00:37:30;;;;;;;1.20;0.90;;;;;;;7.70;88.23;95717.72;5060769;28;20056;-66
2021/05/22 00:39:56;;;;;;;1.73;0.85;;;;;;;7.72;88.36;95723.63;5060494;28;20051;-66
2021/05/22 00:42:23;;;;;;;2.03;0.80;;;;;;;7.67;87.89;95724.56;5060624;28;20658;-66
2021/05/22 00:45:11;;;;;;;2.45;0.80;;;;;;;7.62;87.95;95715.78;5060396;28;20495;-66
2021/05/22 00:47:38;;;;;;;1.13;0.68;;;;;;;7.57;88.38;95704.00;5059555;28;20064;-66
2021/05/22 00:50:06;;;;;;;1.75;0.68;;;;;;;7.58;88.04;95721.84;5060114;28;20791;-66
2021/05/22 00:52:33;;;;;;;2.22;0.73;;;;;;;7.55;87.84;95711.63;5060040;28;20045;-66
2021/05/22 00:54:59;;;;;;;2.20;1.20;;;;;;;7.57;87.94;95712.13;5060303;28;20260;-66
2021/05/22 00:57:25;;;;;;;3.28;1.05;;;;;;;7.56;88.31;95702.38;5059828;28;20127;-66
2021/05/22 00:59:52;;;;;;;3.72;1.00;;;;;;;7.59;88.36;95699.06;5060646;28;20036;-66
2021/05/22 01:02:22;;;;;;;1.05;0.63;;;;;;;7.57;88.22;95698.59;5060073;28;20037;-66
2021/05/22 01:04:49;;;;;;;1.23;0.60;;;;;;;7.55;88.01;95706.22;5059772;28;20575;-66
2021/05/22 01:07:15;;;;;;;2.08;0.80;;;;;;;7.55;88.30;95695.38;5060114;28;20060;-66
2021/05/22 01:09:42;;;;;;;2.53;0.70;;;;;;;7.63;88.46;95706.56;5060049;28;20079;-66
2021/05/22 01:12:12;;;;;;;2.53;0.80;;;;;;;7.70;88.43;95712.31;5059957;28;20040;-67
2021/05/22 01:14:43;;;;;;;2.72;0.80;;;;;;;7.65;87.84;95710.53;5059815;28;20649;-66
2021/05/22 01:17:12;;;;;;;4.18;0.80;;;;;;;7.65;87.90;95704.34;5060503;28;20642;-66
2021/05/22 01:19:45;;;;;;;1.00;0.50;;;;;;;7.63;87.39;95712.00;5060213;28;20040;-66
2021/05/22 01:22:12;;;;;;;1.30;0.60;;;;;;;7.62;87.49;95702.25;5059934;28;20045;-66
2021/05/22 01:24:48;;;;;;;1.00;0.57;;;;;;;7.61;87.71;95704.16;5059743;28;20562;-66
2021/05/22 01:27:15;;;;;;;0.85;0.50;;;;;;;7.62;87.91;95689.47;5059888;28;20048;-66
2021/05/22 01:29:41;;;;;;;2.70;0.68;;;;;;;7.65;88.12;95677.22;5059788;28;20048;-66
2021/05/22 01:32:08;;;;;;;1.95;0.50;;;;;;;7.68;88.08;95653.03;5059656;28;20048;-66
2021/05/22 01:34:35;;;;;;;1.48;0.60;;;;;;;7.65;87.59;95642.81;5059837;28;20052;-66
2021/05/22 01:37:02;;;;;;;1.23;0.60;;;;;;;7.61;87.40;95649.97;5059968;28;20040;-66
2021/05/22 01:39:28;;;;;;;2.05;0.50;;;;;;;7.65;87.58;95660.97;5059901;28;20067;-66
2021/05/22 01:41:54;;;;;;;0.93;0.50;;;;;;;7.61;87.39;95687.09;5059879;28;20041;-66
2021/05/22 01:44:22;;;;;;;1.58;0.40;;;;;;;7.57;86.86;95682.31;5059743;28;20040;-66
2021/05/22 01:46:51;;;;;;;0.50;0.50;;;;;;;7.57;87.45;95670.69;5059305;28;20056;-66
2021/05/22 01:49:19;;;;;;;1.58;0.95;;;;;;;7.56;87.04;95680.72;5059598;28;20049;-66
2021/05/22 01:51:47;;;;;;;0.57;0.40;;;;;;;7.52;86.86;95684.38;5059534;28;20043;-66
2021/05/22 01:54:13;;;;;;;0.73;0.50;;;;;;;7.47;87.30;95685.31;5059736;28;20572;-66
2021/05/22 01:56:40;;;;;;;1.30;0.50;;;;;;;7.50;87.60;95681.19;5059505;28;20118;-66
2021/05/22 01:59:07;;;;;;;1.35;0.40;;;;;;;7.51;87.78;95680.06;5059463;28;20048;-65
2021/05/22 02:01:34;;;;;;;0.60;0.50;;;;;;;7.49;87.49;95672.25;5059550;28;20067;-66
2021/05/22 02:04:03;;;;;;;1.35;0.43;;;;;;;7.46;87.42;95662.03;5059751;28;20052;-66
2021/05/22 02:06:41;;;;;;;1.60;0.50;;;;;;;7.44;87.00;95650.72;5059832;28;20139;-66
2021/05/22 02:09:07;;;;;;;0.65;0.40;;;;;;;7.40;87.23;95651.66;5059673;28;20098;-66
2021/05/22 02:11:38;;;;;;;0.63;0.40;;;;;;;7.37;86.42;95647.69;5059613;28;20049;-66
2021/05/22 02:14:07;;;;;;;0.40;0.38;;;;;;;7.37;86.35;95646.91;5058994;28;20801;-66
2021/05/22 02:16:38;;;;;;;0.60;0.45;;;;;;;7.34;86.19;95653.72;5059863;28;20041;-66
2021/05/22 02:19:09;;;;;;;0.60;0.40;;;;;;;7.30;85.71;95661.66;5059687;28;20097;-65
2021/05/22 02:21:39;;;;;;;1.35;0.40;;;;;;;7.27;86.00;95662.31;5058940;28;20516;-66
2021/05/22 02:24:05;;;;;;;1.02;0.40;;;;;;;7.17;86.04;95659.09;5059527;28;20052;-67
2021/05/22 02:26:31;;;;;;;0.88;0.45;;;;;;;7.12;86.35;95670.06;5059234;28;20047;-66
2021/05/22 02:29:00;;;;;;;0.60;0.50;;;;;;;7.11;86.76;95663.06;5060052;28;20446;-66
2021/05/22 02:31:28;;;;;;;0.68;0.40;;;;;;;7.16;87.00;95669.13;5059493;28;20052;-66
2021/05/22 02:33:58;;;;;;;1.85;0.40;;;;;;;7.18;86.54;95683.13;5061970;28;20036;-66
2021/05/22 02:36:25;;;;;;;1.65;0.82;;;;;;;7.22;87.13;95675.19;5063587;28;20044;-66
2021/05/22 02:38:53;;;;;;;1.50;0.40;;;;;;;7.17;86.70;95691.59;5063312;28;20122;-66
2021/05/22 02:41:21;;;;;;;1.13;0.43;;;;;;;7.17;86.60;95699.72;5063636;28;20044;-66
2021/05/22 02:43:50;;;;;;;1.20;0.43;;;;;;;7.16;86.22;95715.16;5063577;28;20055;-66
2021/05/22 02:46:18;;;;;;;1.70;0.40;;;;;;;7.13;86.40;95709.56;5063045;28;20036;-66
2021/05/22 02:48:46;;;;;;;0.88;0.40;;;;;;;7.16;86.57;95698.13;5062935;28;20669;-66
2021/05/22 02:51:17;;;;;;;2.20;0.50;;;;;;;7.15;86.26;95688.38;5063295;28;20052;-66
2021/05/22 02:53:45;;;;;;;1.55;0.30;;;;;;;7.21;86.10;95676.31;5063877;28;20072;-65
2021/05/22 02:56:12;;;;;;;0.57;0.40;;;;;;;7.23;86.38;95669.47;5063151;28;20538;-66
2021/05/22 02:58:41;;;;;;;0.55;0.30;;;;;;;7.27;85.98;95672.34;5063576;28;20534;-66
2021/05/22 03:01:07;;;;;;;1.83;0.30;;;;;;;7.31;85.58;95681.44;5063199;28;20122;-66
2021/05/22 03:03:35;;;;;;;0.82;0.30;;;;;;;7.39;85.43;95702.34;5063060;28;20562;-66
2021/05/22 03:06:03;;;;;;;0.45;0.30;;;;;;;7.48;85.31;95705.88;5062935;28;20045;-66
2021/05/22 03:08:30;;;;;;;0.32;0.20;;;;;;;7.56;85.15;95699.69;5063098;28;20041;-66
2021/05/22 03:10:56;;;;;;;0.30;0.30;;;;;;;7.63;84.30;95712.78;5063179;28;20052;-66
2021/05/22 03:13:22;;;;;;;1.70;0.30;;;;;;;7.64;84.21;95698.13;5063132;28;20037;-66
2021/05/22 03:15:48;;;;;;;0.25;0.20;;;;;;;7.61;83.25;95700.66;5062873;28;20105;-66
2021/05/22 03:18:15;;;;;;;1.75;0.47;;;;;;;7.63;83.35;95706.56;5063026;28;20041;-66
2021/05/22 03:20:41;;;;;;;0.60;0.30;;;;;;;7.65;83.54;95707.84;5062854;28;20045;-65
2021/05/22 03:23:07;;;;;;;0.93;0.30;;;;;;;7.68;83.20;95703.72;5062800;28;20125;-66
2021/05/22 03:25:34;;;;;;;0.88;0.30;;;;;;;7.68;82.66;95714.56;5062589;28;20044;-66
2021/05/22 03:28:00;;;;;;;0.63;0.40;;;;;;;7.69;83.01;95716.16;5062997;28;20090;-66
2021/05/22 03:30:26;;;;;;;0.25;0.22;;;;;;;7.77;83.27;95702.59;5062971;28;20048;-66
2021/05/22 03:32:52;;;;;;;0.22;0.20;;;;;;;7.78;82.53;95698.78;5062558;28;20654;-66
2021/05/22 03:35:18;;;;;;;1.13;0.40;;;;;;;7.82;82.85;95691.59;5062386;28;20040;-66
2021/05/22 03:37:44;;;;;;;1.33;0.40;;;;;;;7.82;82.56;95693.53;5062635;28;20072;-65
2021/05/22 03:40:11;;;;;;;0.60;0.40;;;;;;;7.83;82.61;95695.16;5062556;28;20052;-66
2021/05/22 03:42:38;;;;;;;0.32;0.32;;;;;;;7.84;82.09;95697.53;5062668;28;20043;-66
2021/05/22 03:45:05;;;;;;;0.32;0.30;;;;;;;7.84;82.07;95699.44;5062338;28;20041;-66
2021/05/22 03:47:31;;;;;;;0.47;0.40;;;;;;;7.82;82.05;95707.06;5061649;28;20060;-66
2021/05/22 03:49:57;;;;;;;2.03;0.35;;;;;;;7.83;81.81;95711.41;5062584;28;20041;-66
2021/05/22 03:52:23;;;;;;;0.65;0.30;;;;;;;7.84;82.38;95704.88;5062190;28;20114;-66
2021/05/22 03:54:49;;;;;;;1.95;0.35;;;;;;;7.82;81.86;95696.22;5061792;28;20062;-65
2021/05/22 03:57:15;;;;;;;0.88;0.40;;;;;;;7.82;80.90;95694.31;5062495;28;20049;-66
2021/05/22 03:59:42;;;;;;;0.95;0.30;;;;;;;7.81;80.82;95690.00;5062181;28;20045;-66
2021/05/22 04:02:08;;;;;;;1.95;0.40;;;;;;;7.83;80.69;95695.94;5061685;28;20545;-66
2021/05/22 04:04:34;;;;;;;0.38;0.22;;;;;;;7.87;80.50;95696.09;5061914;28;20076;-66
2021/05/22 04:07:00;;;;;;;0.30;0.30;;;;;;;7.90;80.22;95678.41;5061756;28;20135;-66
2021/05/22 04:09:26;;;;;;;2.92;0.43;;;;;;;7.91;79.92;95686.22;5061863;28;20407;-66
2021/05/22 04:11:52;;;;;;;0.40;0.40;;;;;;;7.91;79.86;95696.25;5061916;28;20047;-65
2021/05/22 04:14:18;;;;;;;1.92;0.32;;;;;;;7.88;79.98;95694.97;5061449;28;20101;-66
2021/05/22 04:16:44;;;;;;;1.33;0.30;;;;;;;7.92;79.27;95687.81;5061515;28;20044;-65
2021/05/22 04:19:10;;;;;;;7.57;0.50;;;;;;;7.97;79.51;95695.78;5061942;28;20051;-66
2021/05/22 04:21:36;;;;;;;0.85;0.32;;;;;;;8.04;79.97;95706.97;5061436;28;20048;-65
2021/05/22 04:24:03;;;;;;;0.55;0.20;;;;;;;8.09;79.51;95708.72;5062023;28;20143;-66
2021/05/22 04:26:29;;;;;;;0.65;0.35;;;;;;;8.18;79.91;95722.28;5061387;28;20048;-66
2021/05/22 04:28:55;;;;;;;0.70;0.65;;;;;;;8.20;78.87;95720.88;5061703;28;20044;-65
2021/05/22 04:31:21;;;;;;;0.90;0.50;;;;;;;8.21;78.45;95721.66;5061180;28;20044;-66
2021/05/22 04:33:48;;;;;;;0.43;0.30;;;;;;;8.23;78.92;95722.13;5061528;28;20045;-66
2021/05/22 04:36:14;;;;;;;0.73;0.32;;;;;;;8.22;77.79;95731.38;5061472;28;20094;-66
2021/05/22 04:38:40;;;;;;;0.57;0.30;;;;;;;8.22;77.97;95734.09;5061537;28;20048;-66
2021/05/22 04:41:06;;;;;;;2.13;0.30;;;;;;;8.20;77.95;95720.88;5061137;28;20607;-66
2021/05/22 04:43:32;;;;;;;1.15;0.30;;;;;;;8.23;77.97;95719.41;5061146;28;20044;-66
2021/05/22 04:45:58;;;;;;;2.22;0.38;;;;;;;8.26;78.27;95741.28;5061225;28;20109;-66
2021/05/22 04:48:24;;;;;;;0.70;0.40;;;;;;;8.30;77.97;95739.53;5060476;28;20064;-66
2021/05/22 04:50:51;;;;;;;0.52;0.35;;;;;;;8.27;77.64;95753.72;5060794;28;20167;-66
2021/05/22 04:53:17;;;;;;;0.60;0.30;;;;;;;8.24;77.98;95753.56;5061450;28;20056;-66
2021/05/22 04:55:43;;;;;;;0.75;0.40;;;;;;;8.22;77.79;95742.25;5060072;28;20138;-66
2021/05/22 04:58:09;;;;;;;0.57;0.30;;;;;;;8.23;77.18;95730.25;5061041;28;20091;-65
2021/05/22 05:00:35;;;;;;;0.65;0.30;;;;;;;8.23;77.46;95730.25;5061044;28;20060;-65
2021/05/22 05:03:01;;;;;;;0.70;0.35;;;;;;;8.27;77.74;95737.47;5060779;28;20437;-65
2021/05/22 05:05:27;;;;;;;1.00;0.40;;;;;;;8.31;77.80;95762.03;5060975;28;20040;-65
2021/05/22 05:07:54;;;;;;;0.80;0.40;;;;;;;8.32;77.47;95760.91;5059932;28;20080;-66
2021/05/22 05:10:20;;;;;;;0.85;0.35;;;;;;;8.37;77.25;95768.94;5060801;28;20045;-65
2021/05/22 05:12:46;;;;;;;0.65;0.50;;;;;;;8.39;76.76;95761.25;5060877;28;20087;-65
2021/05/22 05:15:12;;;;;;;0.90;0.25;;;;;;;8.44;76.68;95769.25;5060143;28;20055;-65
2021/05/22 05:17:38;;;;;;;0.50;0.28;;;;;;;8.43;76.99;95769.56;5060552;28;20101;-65
2021/05/22 05:20:05;;;;;;;1.25;0.50;;;;;;;8.44;76.50;95758.41;5060768;28;20052;-67
2021/05/22 05:22:32;;;;;;;1.20;0.40;;;;;;;8.47;76.86;95757.78;5067197;28;20053;-71
2021/05/22 05:24:58;;;;;;;1.23;0.40;;;;;;;8.49;76.47;95760.94;5069616;28;20451;-70
2021/05/22 05:27:24;;;;;;;0.73;0.40;;;;;;;8.54;76.15;95760.00;5030642;28;20042;-70
2021/05/22 05:29:50;;;;;;;3.72;0.43;;;;;;;8.60;75.89;95762.22;5029950;28;20073;-70
2021/05/22 05:32:16;;;;;;;2.60;0.40;;;;;;;8.61;75.90;95747.56;5030009;28;20056;-69
2021/05/22 05:34:42;;;;;;;1.05;0.40;;;;;;;8.67;75.36;95744.69;5029486;28;20048;-68
2021/05/22 05:37:08;;;;;;;1.95;0.50;;;;;;;8.69;75.69;95745.16;5030258;28;20069;-69
2021/05/22 05:39:34;;;;;;;0.90;0.40;;;;;;;8.74;75.02;95766.72;5029467;28;20037;-70
2021/05/22 05:42:02;;;;;;;0.40;0.40;;;;;;;8.78;74.88;95751.38;5028227;28;20122;-70
2021/05/22 05:44:29;;;;;;;2.42;0.40;;;;;;;8.82;74.22;95742.28;5026728;28;20048;-70
2021/05/22 05:46:55;;;;;;;1.95;0.50;;;;;;;8.89;75.01;95752.66;5027291;28;20067;-69
2021/05/22 05:49:21;;;;;;;3.20;0.85;;;;;;;8.97;74.28;95759.16;5027281;28;20056;-70
2021/05/22 05:51:47;;;;;;;0.30;0.30;;;;;;;8.98;74.70;95761.59;5027383;28;20572;-70
2021/05/22 05:54:13;;;;;;;0.50;0.50;;;;;;;9.03;74.13;95757.88;5027073;28;20081;-70
2021/05/22 05:56:39;;;;;;;0.95;0.30;;;;;;;9.08;73.00;95757.72;5026936;28;20045;-70
2021/05/22 05:59:06;;;;;;;0.95;0.30;;;;;;;9.14;73.72;95749.09;5027581;28;20071;-71
2021/05/22 06:01:32;;;;;;;0.93;0.32;;;;;;;9.23;74.59;95748.25;5025403;28;20111;-70
2021/05/22 06:03:58;;;;;;;0.38;0.32;;;;;;;9.30;74.29;95751.28;5028051;28;20057;-70
2021/05/22 06:06:24;;;;;;;0.60;0.38;;;;;;;9.29;74.64;95744.22;5026297;28;20060;-71
2021/05/22 06:08:50;;;;;;;0.52;0.43;;;;;;;9.36;74.64;95749.97;5029949;28;20041;-70
2021/05/22 06:11:18;;;;;;;0.40;0.40;;;;;;;9.36;73.17;95753.50;5029913;28;20056;-71
2021/05/22 06:13:44;;;;;;;1.45;0.40;;;;;;;9.42;74.01;95743.25;5031176;28;20069;-71
2021/05/22 06:16:23;;;;;;;1.63;0.40;;;;;;;9.46;72.59;95741.47;5030159;28;20085;-71
2021/05/22 06:18:49;;;;;;;1.95;0.40;;;;;;;9.49;74.95;95753.59;5030832;28;20041;-71
2021/05/22 06:21:16;;;;;;;1.75;0.40;;;;;;;9.48;73.57;95755.53;5030953;28;20064;-70
2021/05/22 06:23:42;;;;;;;0.68;0.45;;;;;;;9.52;74.02;95756.47;5030625;28;20055;-71
2021/05/22 06:26:08;;;;;;;2.30;0.70;;;;;;;9.59;74.41;95767.63;5030684;28;20119;-71
2021/05/22 06:28:34;;;;;;;0.98;0.57;;;;;;;9.65;75.43;95769.03;5030332;28;20046;-71
2021/05/22 06:31:00;;;;;;;2.55;0.60;;;;;;;9.76;74.59;95768.69;5031349;28;20045;-70
2021/05/22 06:33:28;;;;;;;1.67;1.00;;;;;;;9.77;73.18;95767.59;5030084;28;20124;-71
2021/05/22 06:35:54;;;;;;;1.17;0.40;;;;;;;9.80;72.15;95764.19;5031098;28;20164;-71
2021/05/22 06:38:21;;;;;;;0.80;0.50;;;;;;;9.81;72.02;95754.91;5030735;28;20059;-70
2021/05/22 06:40:48;;;;;;;0.38;0.20;;;;;;;9.91;72.49;95765.41;5030536;28;20041;-70
2021/05/22 06:43:14;;;;;;;1.70;0.57;;;;;;;9.93;71.74;95755.03;5030031;28;20068;-70
2021/05/22 06:45:42;;;;;;;2.35;0.50;;;;;;;9.99;72.28;95758.34;5044429;28;20041;-70
2021/05/22 06:48:09;;;;;;;1.35;0.57;;;;;;;10.01;72.77;95767.75;5043063;28;20048;-70
2021/05/22 06:50:37;;;;;;;2.95;0.65;;;;;;;10.01;71.95;95765.03;5046691;28;20053;-70
2021/05/22 06:53:03;;;;;;;1.98;0.50;;;;;;;10.00;70.11;95768.09;5045130;28;20751;-70
2021/05/22 06:55:29;;;;;;;2.78;0.90;;;;;;;10.00;71.67;95774.34;5048161;28;20044;-70
2021/05/22 06:57:55;;;;;;;2.72;0.60;;;;;;;10.09;72.51;95774.28;5043804;28;20072;-70
2021/05/22 07:00:22;;;;;;;2.65;0.60;;;;;;;10.25;74.15;95780.00;5040840;28;20053;-71
2021/05/22 07:02:49;;;;;;;1.00;0.43;;;;;;;10.40;71.24;95776.69;5045081;28;20517;-70
2021/05/22 07:05:15;;;;;;;6.47;0.73;;;;;;;10.51;70.15;95777.09;5044492;28;20044;-71
2021/05/22 07:07:42;;;;;;;3.78;0.55;;;;;;;10.54;72.11;95784.59;5042477;28;20045;-71
2021/05/22 07:10:09;;;;;;;3.90;0.75;;;;;;;10.60;70.54;95786.81;5048555;28;20055;-71
2021/05/22 07:12:35;;;;;;;2.42;0.70;;;;;;;10.68;71.35;95783.22;5047909;28;20186;-71
2021/05/22 07:15:01;;;;;;;1.25;0.60;;;;;;;10.85;71.12;95786.91;5044383;28;20144;-71
2021/05/22 07:17:28;;;;;;;3.92;0.60;;;;;;;10.82;68.09;95784.88;5046528;28;20045;-69
2021/05/22 07:19:54;;;;;;;1.85;0.80;;;;;;;10.89;69.56;95785.13;5046783;28;20068;-70
2021/05/22 07:22:20;;;;;;;3.65;0.80;;;;;;;11.04;71.25;95776.34;5045451;28;20492;-69
2021/05/22 07:24:48;;;;;;;5.38;1.10;;;;;;;11.13;68.58;95782.50;5046209;28;20044;-69
2021/05/22 07:27:14;;;;;;;6.68;1.00;;;;;;;11.23;70.33;95782.09;5042803;28;20106;-69
2021/05/22 07:29:40;;;;;;;2.03;0.73;;;;;;;11.30;70.64;95791.66;5043256;28;20061;-70
2021/05/22 07:32:06;;;;;;;2.80;0.80;;;;;;;11.35;68.16;95789.50;5045008;28;20055;-70
2021/05/22 07:34:33;;;;;;;5.80;1.00;;;;;;;11.40;68.72;95788.50;5047372;28;20048;-69
2021/05/22 07:36:59;;;;;;;2.28;0.90;;;;;;;11.54;68.73;95786.28;5046890;28;20053;-70
2021/05/22 07:39:25;;;;;;;2.97;1.00;;;;;;;11.63;68.27;95795.13;5044805;28;20059;-71
2021/05/22 07:41:52;;;;;;;5.22;1.00;;;;;;;11.71;66.52;95788.00;5048343;28;20061;-69
2021/05/22 07:44:18;;;;;;;4.25;0.77;;;;;;;11.70;65.92;95779.03;5046836;28;20044;-70
2021/05/22 07:46:44;;;;;;;5.65;1.13;;;;;;;11.75;66.51;95781.53;5044568;28;20055;-69
2021/05/22 07:49:10;;;;;;;4.80;1.30;;;;;;;11.85;67.18;95779.50;5043026;28;20049;-70
2021/05/22 07:51:36;;;;;;;2.65;0.90;;;;;;;12.00;64.49;95770.66;5042416;28;20053;-69
2021/05/22 07:54:02;;;;;;;2.50;1.23;;;;;;;12.20;64.75;95777.13;5045256;28;20060;-70
2021/05/22 07:56:29;;;;;;;3.33;0.80;;;;;;;12.27;63.49;95780.91;5044154;28;20119;-69
2021/05/22 07:58:55;;;;;;;4.07;0.82;;;;;;;12.32;66.21;95765.41;5045348;28;20567;-69
2021/05/22 08:01:21;;;;;;;2.47;0.90;;;;;;;12.82;61.47;95772.34;5045496;28;20054;-69
2021/05/22 08:03:47;;;;;;;5.65;1.00;;;;;;;13.77;58.06;95767.94;5047621;28;20114;-70
2021/05/22 08:06:13;;;;;;;2.83;0.65;;;;;;;14.72;55.10;95765.91;5046392;28;20044;-70
2021/05/22 08:08:39;;;;;;;3.08;0.80;;;;;;;15.17;52.33;95756.22;5047429;28;20159;-70
2021/05/22 08:11:05;;;;;;;3.67;0.90;;;;;;;15.04;54.02;95749.31;5044699;28;20088;-70
2021/05/22 08:13:32;;;;;;;2.33;0.73;;;;;;;16.08;55.12;95752.00;5047990;28;20057;-70
2021/05/22 08:15:59;;;;;;;3.25;0.82;;;;;;;16.88;50.92;95752.81;5044021;28;20504;-70
2021/05/22 08:18:25;;;;;;;6.47;1.35;;;;;;;17.77;48.93;95758.56;5045637;28;20106;-70
2021/05/22 08:20:53;;;;;;;5.82;1.00;;;;;;;18.03;44.58;95749.34;5044371;28;20517;-72
2021/05/22 08:23:19;;;;;;;5.03;0.95;;;;;;;18.25;43.03;95756.59;5045025;28;20552;-70
2021/05/22 08:25:45;;;;;;;2.90;0.80;;;;;;;18.52;43.07;95746.94;5041266;28;20041;-70
2021/05/22 08:28:13;;;;;;;8.88;1.30;;;;;;;18.41;45.05;95746.09;5044326;28;20052;-71
2021/05/22 08:30:39;;;;;;;4.57;1.20;;;;;;;18.28;42.61;95750.34;5043114;28;20127;-70
2021/05/22 08:33:06;;;;;;;3.63;0.80;;;;;;;17.92;43.14;95743.75;5043767;28;20446;-71
2021/05/22 08:35:32;;;;;;;3.42;0.77;;;;;;;17.91;46.14;95742.97;5045907;28;20052;-71
2021/05/22 08:37:58;;;;;;;4.60;0.90;;;;;;;17.68;41.39;95743.09;5044024;28;20057;-69
2021/05/22 08:40:26;;;;;;;3.03;1.10;;;;;;;17.55;40.32;95739.03;5043919;28;20532;-69
2021/05/22 08:42:53;;;;;;;5.18;0.90;;;;;;;17.15;43.97;95743.31;5046244;28;20044;-68
2021/05/22 08:45:20;;;;;;;6.25;1.10;;;;;;;16.51;42.91;95744.41;5043658;28;20048;-69
2021/05/22 08:47:49;;;;;;;3.58;1.33;;;;;;;16.09;43.64;95759.09;5043636;28;20045;-71
2021/05/22 08:50:17;;;;;;;6.80;1.08;;;;;;;16.57;42.19;95749.22;5039818;28;20048;-69
2021/05/22 08:52:43;;;;;;;7.13;1.25;;;;;;;16.79;45.14;95750.31;5043998;28;20048;-68
2021/05/22 08:55:11;;;;;;;3.30;0.75;;;;;;;17.31;41.16;95739.56;5041878;28;20049;-69
2021/05/22 08:57:37;;;;;;;4.43;0.90;;;;;;;16.90;44.82;95734.75;5045314;28;20041;-68
2021/05/22 09:00:08;;;;;;;3.60;1.20;;;;;;;16.68;46.39;95743.88;5044935;28;20072;-71
2021/05/22 09:02:34;;;;;;;5.00;1.20;;;;;;;16.87;44.36;95746.50;5045411;28;20049;-68
2021/05/22 09:05:18;;;;;;;5.13;0.90;;;;;;;16.84;46.62;95741.75;5045786;28;20077;-69
2021/05/22 09:07:46;;;;;;;2.13;0.90;;;;;;;16.68;44.12;95752.91;5044188;28;20041;-70
2021/05/22 09:10:16;;;;;;;5.15;1.00;;;;;;;16.55;45.09;95745.25;5045949;28;20095;-71
2021/05/22 09:12:44;;;;;;;3.22;0.85;;;;;;;17.27;47.27;95746.97;5044410;28;20107;-70
2021/05/22 09:15:12;;;;;;;1.98;0.75;;;;;;;17.75;44.38;95753.44;5042606;28;20123;-69
2021/05/22 09:17:44;;;;;;;5.40;0.90;;;;;;;17.64;44.12;95750.53;5027494;28;20500;-68
2021/05/22 09:20:13;;;;;;;4.53;0.73;;;;;;;17.52;46.74;95750.00;5027434;28;20826;-68
2021/05/22 09:22:40;;;;;;;2.97;0.82;;;;;;;17.42;46.85;95755.00;5027347;28;20046;-69
2021/05/22 09:25:09;;;;;;;3.53;0.73;;;;;;;17.28;43.67;95746.63;5027151;28;20274;-68
2021/05/22 09:27:37;;;;;;;3.92;0.75;;;;;;;16.89;44.47;95749.66;5027408;28;20077;-68
2021/05/22 09:30:06;;;;;;;3.17;0.80;;;;;;;16.88;47.92;95752.81;5026935;28;20479;-69
2021/05/22 09:32:32;;;;;;;3.75;0.70;;;;;;;16.70;43.58;95747.03;5028015;28;20512;-68
2021/05/22 09:34:58;;;;;;;3.50;0.80;;;;;;;16.55;45.43;95746.06;5026638;28;20061;-69
2021/05/22 09:37:24;;;;;;;4.07;0.73;;;;;;;16.30;42.42;95747.66;5027491;28;20061;-70
2021/05/22 09:39:52;;;;;;;3.05;0.75;;;;;;;16.09;44.34;95750.84;5026908;28;20114;-69
2021/05/22 09:42:24;;;;;;;2.10;1.05;;;;;;;15.81;45.63;95753.91;5027169;28;20738;-68
2021/05/22 09:44:50;;;;;;;2.28;0.52;;;;;;;15.58;43.87;95748.38;5027791;28;20489;-69
2021/05/22 09:47:16;;;;;;;1.88;0.50;;;;;;;15.60;44.54;95757.03;5029666;28;20049;-68
2021/05/22 09:49:42;;;;;;;3.25;0.77;;;;;;;15.80;47.57;95761.34;5028844;28;20120;-69
2021/05/22 09:52:10;;;;;;;3.17;0.90;;;;;;;15.79;45.72;95759.75;5029567;28;20163;-69
2021/05/22 09:54:57;;;;;;;3.97;1.00;;;;;;;15.74;46.20;95762.81;5030462;28;20116;-70
2021/05/22 09:57:44;;;;;;;3.03;0.70;;;;;;;15.78;45.16;95763.66;5030268;28;20049;-70
2021/05/22 10:00:15;;;;;;;1.83;0.52;;;;;;;15.62;44.77;95762.97;5030314;28;20053;-69
2021/05/22 10:02:43;;;;;;;7.07;1.00;;;;;;;15.56;45.19;95756.19;5029881;28;20072;-70
2021/05/22 10:05:14;;;;;;;4.05;0.70;;;;;;;15.48;45.73;95762.69;5029826;28;20420;-68
2021/05/22 10:07:40;;;;;;;2.88;0.80;;;;;;;15.45;46.01;95771.63;5030250;28;20053;-70
2021/05/22 10:10:08;;;;;;;4.20;0.73;;;;;;;15.72;47.08;95764.34;5029403;28;20062;-70
2021/05/22 10:12:36;;;;;;;3.10;0.60;;;;;;;16.06;46.74;95757.06;5030468;28;20053;-70
2021/05/22 10:15:03;;;;;;;2.22;0.60;;;;;;;16.29;45.38;95765.28;5028923;28;20052;-71
2021/05/22 10:17:29;;;;;;;4.75;0.90;;;;;;;16.05;43.93;95763.72;5030794;28;20120;-68
2021/05/22 10:19:55;;;;;;;3.10;0.60;;;;;;;15.74;41.50;95757.31;5029475;28;20420;-68
2021/05/22 10:22:21;;;;;;;4.53;0.70;;;;;;;15.64;46.68;95755.97;5030024;28;20052;-69
2021/05/22 10:24:48;;;;;;;2.03;0.68;;;;;;;15.90;47.75;95755.25;5029490;28;20037;-68
2021/05/22 10:27:15;;;;;;;2.95;1.10;;;;;;;16.19;46.48;95752.97;5029874;28;20103;-69
2021/05/22 10:29:41;;;;;;;3.17;0.52;;;;;;;16.39;45.53;95759.97;5029790;28;20045;-69
2021/05/22 10:32:17;;;;;;;2.92;0.70;;;;;;;16.56;44.90;95755.09;5029260;28;20053;-70
2021/05/22 10:34:43;;;;;;;4.38;0.93;;;;;;;16.60;44.21;95753.16;5029976;28;20076;-68
2021/05/22 10:37:09;;;;;;;4.18;0.60;;;;;;;16.69;49.62;95751.72;5030888;28;20048;-69
2021/05/22 10:39:39;;;;;;;3.40;0.90;;;;;;;16.73;42.91;95751.81;5050025;28;20507;-70
2021/05/22 10:42:07;;;;;;;4.65;0.60;;;;;;;16.59;45.18;95754.34;5048340;28;20073;-69
2021/05/22 10:44:37;;;;;;;4.78;0.82;;;;;;;16.41;42.39;95763.13;5049910;28;20124;-70
2021/05/22 10:47:12;;;;;;;2.13;0.70;;;;;;;16.22;43.79;95759.66;5048210;28;20081;-70
2021/05/22 10:49:57;;;;;;;4.13;0.82;;;;;;;16.14;48.62;95753.28;5049389;28;20045;-69
2021/05/22 10:52:24;;;;;;;4.45;0.82;;;;;;;16.42;45.76;95750.97;5049403;28;20044;-69
2021/05/22 10:55:01;;;;;;;1.88;0.70;;;;;;;16.47;45.30;95749.06;5041790;28;20049;-69
2021/05/22 10:57:28;;;;;;;5.47;0.88;;;;;;;16.40;44.00;95756.03;5033689;28;20125;-69
2021/05/22 11:00:20;;;;;;;4.72;0.70;;;;;;;16.35;44.89;95748.13;5032321;28;20052;-69
2021/05/22 11:02:48;;;;;;;3.92;0.80;;;;;;;16.23;44.77;95731.81;5033403;28;20037;-69
2021/05/22 11:05:36;;;;;;;4.22;0.70;;;;;;;16.61;51.55;95721.78;5032504;28;20424;-69
2021/05/22 11:08:28;;;;;;;3.33;0.80;;;;;;;16.88;47.57;95723.34;5032413;28;20098;-71
2021/05/22 11:10:59;;;;;;;3.97;0.75;;;;;;;17.04;44.64;95738.84;5033641;28;20056;-70
2021/05/22 11:13:39;;;;;;;3.05;0.57;;;;;;;17.22;44.38;95734.34;5031738;28;20129;-70
2021/05/22 11:16:07;;;;;;;2.40;0.70;;;;;;;17.14;42.78;95735.44;5032215;28;20045;-72
2021/05/22 11:18:59;;;;;;;4.65;0.80;;;;;;;17.01;46.18;95734.09;5032637;28;20046;-70
2021/05/22 11:21:27;;;;;;;2.38;0.68;;;;;;;17.10;43.64;95729.09;5032165;28;20075;-69
2021/05/22 11:24:11;;;;;;;5.03;0.57;;;;;;;17.21;46.04;95727.25;5031649;28;20409;-68
2021/05/22 11:26:53;;;;;;;1.88;0.70;;;;;;;16.97;42.31;95733.28;5028994;28;20092;-69
2021/05/22 11:29:19;;;;;;;3.22;1.17;;;;;;;16.93;43.19;95734.00;5029338;28;20046;-69
2021/05/22 11:31:46;;;;;;;2.85;0.68;;;;;;;16.89;41.51;95738.66;5029250;28;20056;-69
2021/05/22 11:34:29;;;;;;;2.90;0.70;;;;;;;17.04;43.84;95736.09;5028266;28;20739;-69
2021/05/22 11:37:34;;;;;;;4.70;0.70;;;;;;;17.13;44.96;95739.38;5028783;28;20046;-69
2021/05/22 11:40:00;;;;;;;2.25;0.50;;;;;;;17.13;45.66;95731.13;5022912;28;20049;-69
2021/05/22 11:42:31;;;;;;;8.70;0.90;;;;;;;16.94;44.26;95730.09;5029312;28;20408;-69